createdAt,value
2023-04-19T00:02:21.090Z,9.17
2023-04-19T00:04:47.964Z,9.80
2023-04-19T00:07:14.880Z,8.73
2023-04-19T00:09:41.652Z,8.87
2023-04-19T00:12:08.404Z,8.67
2023-04-19T00:14:35.188Z,9.63
2023-04-19T00:17:02.006Z,9.20
2023-04-19T00:19:28.757Z,8.93
2023-04-19T00:21:55.603Z,9.13
2023-04-19T00:24:22.305Z,9.27
2023-04-19T00:26:49.025Z,9.27
2023-04-19T00:29:15.793Z,9.57
2023-04-19T00:31:42.518Z,9.97
2023-04-19T00:34:09.322Z,9.50
2023-04-19T00:36:36.140Z,8.80
2023-04-19T00:39:03.023Z,9.43
2023-04-19T00:41:29.802Z,8.03
2023-04-19T00:43:56.513Z,9.50
2023-04-19T00:46:23.858Z,8.73
2023-04-19T00:48:51.183Z,8.87
2023-04-19T00:51:18.219Z,8.90
2023-04-19T00:53:45.148Z,9.60
2023-04-19T00:56:14.014Z,8.70
2023-04-19T00:58:41.032Z,8.90
2023-04-19T01:01:07.858Z,9.47
2023-04-19T01:03:35.352Z,9.77
2023-04-19T01:06:03.032Z,9.13
2023-04-19T01:08:29.754Z,8.90
2023-04-19T01:10:56.495Z,9.37
2023-04-19T01:13:23.280Z,9.47
2023-04-19T01:15:50.204Z,9.50
2023-04-19T01:18:17.313Z,9.33
2023-04-19T01:20:44.031Z,9.40
2023-04-19T01:23:12.123Z,9.67
2023-04-19T01:25:39.292Z,10.00
2023-04-19T01:28:06.502Z,9.77
2023-04-19T01:30:33.385Z,10.00
2023-04-19T01:33:00.405Z,10.13
2023-04-19T01:35:27.194Z,9.50
2023-04-19T01:37:56.516Z,9.13
2023-04-19T01:40:26.492Z,8.80
2023-04-19T01:42:53.756Z,8.10
2023-04-19T01:45:20.611Z,9.33
2023-04-19T01:47:47.391Z,9.33
2023-04-19T01:50:14.143Z,9.57
2023-04-19T01:52:40.949Z,8.50
2023-04-19T01:55:08.049Z,8.97
2023-04-19T01:57:34.900Z,9.17
2023-04-19T02:00:02.298Z,8.67
2023-04-19T02:02:29.191Z,9.33
2023-04-19T02:04:56.043Z,8.80
2023-04-19T02:07:22.965Z,9.07
2023-04-19T02:09:49.835Z,9.23
2023-04-19T02:12:16.560Z,9.07
2023-04-19T02:14:43.345Z,9.33
2023-04-19T02:17:10.310Z,9.10
2023-04-19T02:19:37.002Z,9.07
2023-04-19T02:22:03.814Z,9.07
2023-04-19T02:24:30.804Z,9.57
2023-04-19T02:26:57.553Z,9.43
2023-04-19T02:29:24.332Z,8.50
2023-04-19T02:31:51.276Z,8.43
2023-04-19T02:34:18.833Z,9.53
2023-04-19T02:36:45.693Z,9.70
2023-04-19T02:39:12.558Z,9.00
2023-04-19T02:41:39.284Z,9.83
2023-04-19T02:44:06.154Z,9.90
2023-04-19T02:46:33.009Z,10.43
2023-04-19T02:49:01.248Z,9.37
2023-04-19T02:51:28.122Z,9.83
2023-04-19T02:53:54.942Z,9.20
2023-04-19T02:56:21.669Z,9.53
2023-04-19T02:58:48.423Z,10.17
2023-04-19T03:01:15.246Z,10.33
2023-04-19T03:03:42.524Z,10.13
2023-04-19T03:06:09.312Z,9.77
2023-04-19T03:08:36.595Z,9.83
2023-04-19T03:11:03.344Z,9.53
2023-04-19T03:13:30.092Z,9.43
2023-04-19T03:15:56.862Z,9.57
2023-04-19T03:18:23.614Z,9.90
2023-04-19T03:20:50.381Z,9.17
2023-04-19T03:23:17.126Z,10.47
2023-04-19T03:25:43.897Z,9.40
2023-04-19T03:28:10.625Z,9.33
2023-04-19T03:30:37.328Z,8.80
2023-04-19T03:33:04.162Z,10.13
2023-04-19T03:35:32.465Z,10.00
2023-04-19T03:37:59.250Z,9.50
2023-04-19T03:40:25.996Z,9.03
2023-04-19T03:42:52.870Z,10.40
2023-04-19T03:45:19.829Z,9.97
2023-04-19T03:47:46.552Z,9.90
2023-04-19T03:50:13.368Z,9.73
2023-04-19T03:52:40.109Z,10.80
2023-04-19T03:55:07.463Z,10.53
2023-04-19T03:57:34.240Z,10.27
2023-04-19T04:00:01.554Z,10.23
2023-04-19T04:02:28.436Z,9.90
2023-04-19T04:04:55.632Z,9.63
2023-04-19T04:07:23.393Z,10.57
2023-04-19T04:09:50.453Z,11.17
2023-04-19T04:12:17.227Z,10.10
2023-04-19T04:14:43.934Z,9.37
2023-04-19T04:17:10.725Z,10.13
2023-04-19T04:19:37.506Z,10.67
2023-04-19T04:22:04.944Z,11.00
2023-04-19T04:24:33.132Z,11.10
2023-04-19T04:27:01.050Z,11.00
2023-04-19T04:29:29.279Z,10.77
2023-04-19T04:31:57.059Z,10.87
2023-04-19T04:34:24.861Z,10.80
2023-04-19T04:36:51.708Z,10.43
2023-04-19T04:39:18.619Z,11.87
2023-04-19T04:41:46.546Z,11.57
2023-04-19T04:44:13.424Z,12.00
2023-04-19T04:46:40.163Z,11.57
2023-04-19T04:49:07.568Z,11.77
2023-04-19T04:51:34.903Z,12.00
2023-04-19T04:54:01.841Z,11.23
2023-04-19T04:56:28.634Z,11.47
2023-04-19T04:58:55.942Z,10.90
2023-04-19T05:01:24.224Z,11.60
2023-04-19T05:03:52.444Z,13.07
2023-04-19T05:06:19.401Z,11.27
2023-04-19T05:08:46.173Z,10.77
2023-04-19T05:11:13.049Z,11.30
2023-04-19T05:13:39.802Z,11.67
2023-04-19T05:16:06.784Z,11.23
2023-04-19T05:18:33.535Z,10.83
2023-04-19T05:21:00.614Z,10.80
2023-04-19T05:23:27.403Z,11.20
2023-04-19T05:25:54.245Z,11.30
2023-04-19T05:28:21.010Z,11.03
2023-04-19T05:30:47.826Z,11.07
2023-04-19T05:33:14.552Z,10.80
2023-04-19T05:35:41.556Z,11.50
2023-04-19T05:38:08.575Z,9.53
2023-04-19T05:40:35.966Z,11.03
2023-04-19T05:43:02.721Z,10.50
2023-04-19T05:45:29.533Z,11.80
2023-04-19T05:47:56.466Z,11.07
2023-04-19T05:50:23.345Z,10.90
2023-04-19T05:52:50.243Z,11.30
2023-04-19T05:55:18.214Z,10.67
2023-04-19T05:57:45.000Z,9.83
2023-04-19T06:00:12.159Z,11.40
2023-04-19T06:02:39.059Z,10.80
2023-04-19T06:05:10.284Z,10.20
2023-04-19T06:07:43.938Z,10.83
2023-04-19T06:10:17.500Z,11.27
2023-04-19T06:12:44.210Z,10.60
2023-04-19T06:15:12.046Z,9.97
2023-04-19T06:17:38.932Z,10.70
2023-04-19T06:20:08.362Z,10.23
2023-04-19T06:22:35.121Z,10.30
2023-04-19T06:25:02.237Z,11.63
2023-04-19T06:27:28.957Z,12.50
2023-04-19T06:29:55.729Z,12.00
2023-04-19T06:32:22.476Z,11.97
2023-04-19T06:34:49.167Z,11.50
2023-04-19T06:37:15.881Z,11.67
2023-04-19T06:39:42.619Z,11.00
2023-04-19T06:42:09.520Z,10.87
2023-04-19T06:44:36.345Z,12.40
2023-04-19T06:47:03.380Z,11.87
2023-04-19T06:49:30.447Z,12.20
2023-04-19T06:51:57.209Z,11.90
2023-04-19T06:54:24.472Z,12.57
2023-04-19T06:56:51.673Z,12.77
2023-04-19T06:59:20.565Z,11.20
2023-04-19T07:01:48.374Z,9.90
2023-04-19T07:04:16.041Z,10.40
2023-04-19T07:06:43.127Z,11.07
2023-04-19T07:09:09.909Z,11.13
2023-04-19T07:11:36.836Z,11.20
2023-04-19T07:14:03.903Z,9.70
2023-04-19T07:16:30.989Z,10.33
2023-04-19T07:18:58.048Z,9.73
2023-04-19T07:21:27.203Z,10.40
2023-04-19T07:23:53.942Z,10.63
2023-04-19T07:26:20.697Z,10.83
2023-04-19T07:28:47.515Z,9.90
2023-04-19T07:31:18.366Z,10.83
2023-04-19T07:33:45.238Z,12.50
2023-04-19T07:36:12.064Z,12.23
2023-04-19T07:38:40.178Z,10.27
2023-04-19T07:41:06.930Z,12.10
2023-04-19T07:43:33.950Z,12.77
2023-04-19T07:46:00.955Z,12.57
2023-04-19T07:48:27.766Z,12.30
2023-04-19T07:50:54.587Z,11.57
2023-04-19T07:53:21.528Z,12.90
2023-04-19T07:55:48.345Z,11.17
2023-04-19T07:58:15.383Z,11.57
2023-04-19T08:00:42.110Z,12.33
2023-04-19T08:03:09.177Z,11.27
2023-04-19T08:05:36.210Z,10.27
2023-04-19T08:08:03.108Z,11.27
2023-04-19T08:10:30.882Z,12.18
2023-04-19T08:13:05.747Z,11.73
2023-04-19T08:18:07.630Z,11.97
2023-04-19T08:20:34.791Z,11.97
2023-04-19T08:23:10.275Z,10.60
2023-04-19T08:25:41.343Z,11.23
2023-04-19T08:28:08.462Z,9.73
2023-04-19T08:30:35.688Z,9.97
2023-04-19T08:33:02.869Z,8.70
2023-04-19T08:35:29.949Z,10.23
2023-04-19T08:37:56.844Z,9.87
2023-04-19T08:40:24.566Z,10.53
2023-04-19T08:42:52.014Z,9.93
2023-04-19T08:48:00.711Z,10.37
2023-04-19T08:53:12.248Z,10.87
2023-04-19T08:56:06.780Z,10.63
2023-04-19T09:01:06.210Z,10.63
2023-04-19T09:03:38.587Z,8.90
2023-04-19T09:06:12.677Z,9.97
2023-04-19T09:08:41.073Z,9.13
2023-04-19T09:11:08.583Z,10.13
2023-04-19T09:13:40.698Z,9.63
2023-04-19T09:16:10.634Z,9.57
2023-04-19T09:19:02.546Z,9.67
2023-04-19T09:21:39.802Z,8.93
2023-04-19T09:24:06.955Z,10.87
2023-04-19T09:26:34.706Z,9.67
2023-04-19T09:29:02.542Z,10.03
2023-04-19T09:31:50.797Z,8.70
2023-04-19T09:34:19.650Z,8.50
2023-04-19T09:36:47.074Z,9.07
2023-04-19T09:39:15.059Z,9.77
2023-04-19T09:41:55.203Z,9.73
2023-04-19T09:45:01.652Z,9.50
2023-04-19T09:47:30.705Z,10.20
2023-04-19T09:50:21.922Z,8.27
2023-04-19T09:52:50.512Z,8.83
2023-04-19T09:57:49.276Z,9.20
2023-04-19T10:00:16.358Z,8.83
2023-04-19T10:02:45.315Z,9.80
2023-04-19T10:05:20.312Z,7.63
2023-04-19T10:07:49.756Z,9.17
2023-04-19T10:10:23.925Z,9.63
2023-04-19T10:15:33.883Z,7.90
2023-04-19T10:18:11.292Z,7.83
2023-04-19T10:20:53.466Z,8.37
2023-04-19T10:23:22.113Z,7.53
2023-04-19T10:25:49.475Z,7.33
2023-04-19T10:28:17.188Z,8.17
2023-04-19T10:30:54.848Z,8.17
2023-04-19T10:33:29.114Z,7.87
2023-04-19T10:35:57.801Z,8.03
2023-04-19T10:38:43.541Z,8.50
2023-04-19T10:41:18.209Z,7.90
2023-04-19T10:44:08.705Z,8.70
2023-04-19T10:46:36.493Z,8.33
2023-04-19T10:49:08.017Z,8.13
2023-04-19T10:51:37.533Z,7.20
2023-04-19T10:54:09.297Z,8.17
2023-04-19T10:56:36.084Z,8.13
2023-04-19T10:59:03.161Z,8.20
2023-04-19T11:01:43.568Z,7.90
2023-04-19T11:04:11.000Z,7.07
2023-04-19T11:06:58.801Z,7.37
2023-04-19T11:09:32.670Z,7.73
2023-04-19T11:12:23.437Z,7.47
2023-04-19T11:15:00.359Z,7.10
2023-04-19T11:17:31.978Z,8.03
2023-04-19T11:20:07.378Z,8.00
2023-04-19T11:22:47.723Z,7.50
2023-04-19T11:25:16.740Z,8.07
2023-04-19T11:27:49.002Z,7.07
2023-04-19T11:30:18.211Z,7.17
2023-04-19T11:33:03.815Z,6.67
2023-04-19T11:35:30.779Z,6.30
2023-04-19T11:37:59.917Z,7.10
2023-04-19T11:40:27.014Z,6.80
2023-04-19T11:43:00.892Z,7.07
2023-04-19T11:45:39.158Z,7.20
2023-04-19T11:48:13.538Z,6.90
2023-04-19T11:50:42.575Z,7.97
2023-04-19T11:53:10.588Z,8.20
2023-04-19T11:55:37.416Z,7.23
2023-04-19T11:58:09.860Z,7.67
2023-04-19T12:00:36.911Z,7.63
2023-04-19T12:03:04.200Z,8.43
2023-04-19T12:05:31.675Z,9.60
2023-04-19T12:08:08.655Z,8.67
2023-04-19T12:10:36.169Z,8.73
2023-04-19T12:13:17.909Z,7.63
2023-04-19T12:15:46.644Z,9.30
2023-04-19T12:18:13.531Z,8.80
2023-04-19T12:20:46.116Z,9.43
2023-04-19T12:23:15.833Z,9.00
2023-04-19T12:25:44.868Z,9.80
2023-04-19T12:28:14.929Z,9.60
2023-04-19T12:30:44.781Z,9.73
2023-04-19T12:33:11.934Z,9.87
2023-04-19T12:35:39.433Z,9.07
2023-04-19T12:38:06.292Z,9.63
2023-04-19T12:40:33.470Z,9.43
2023-04-19T12:43:00.427Z,9.07
2023-04-19T12:45:27.852Z,8.80
2023-04-19T12:47:54.783Z,8.40
2023-04-19T12:50:21.696Z,9.63
2023-04-19T12:52:48.565Z,11.20
2023-04-19T12:55:15.736Z,10.60
2023-04-19T12:57:42.792Z,9.80
2023-04-19T13:00:11.022Z,9.53
2023-04-19T13:02:38.423Z,8.77
2023-04-19T13:05:06.610Z,8.53
2023-04-19T13:07:33.738Z,9.67
2023-04-19T13:10:00.988Z,7.97
2023-04-19T13:12:28.657Z,7.37
2023-04-19T13:14:55.577Z,7.00
2023-04-19T13:17:22.544Z,7.57
2023-04-19T13:19:49.613Z,7.20
2023-04-19T13:22:16.754Z,7.90
2023-04-19T13:24:43.685Z,7.37
2023-04-19T13:27:10.600Z,7.27
2023-04-19T13:29:37.458Z,5.47
2023-04-19T13:32:07.778Z,6.23
2023-04-19T13:34:35.230Z,5.97
2023-04-19T13:37:02.219Z,6.17
2023-04-19T13:39:29.216Z,6.00
2023-04-19T13:41:56.128Z,6.23
2023-04-19T13:44:23.247Z,6.43
2023-04-19T13:46:50.256Z,5.53
2023-04-19T13:49:28.749Z,5.70
2023-04-19T13:51:55.713Z,7.70
2023-04-19T13:54:22.566Z,6.90
2023-04-19T13:56:51.942Z,7.47
2023-04-19T13:59:19.335Z,5.70
2023-04-19T14:01:46.414Z,6.83
2023-04-19T14:04:13.604Z,6.50
2023-04-19T14:06:41.053Z,7.27
2023-04-19T14:09:08.270Z,6.33
2023-04-19T14:11:36.613Z,6.87
2023-04-19T14:14:06.593Z,8.00
2023-04-19T14:16:33.457Z,6.67
2023-04-19T14:19:01.150Z,8.23
2023-04-19T14:21:31.763Z,7.17
2023-04-19T14:23:58.893Z,7.53
2023-04-19T14:26:27.531Z,7.40
2023-04-19T14:28:54.562Z,8.07
2023-04-19T14:31:27.365Z,8.73
2023-04-19T14:33:55.182Z,8.67
2023-04-19T14:36:22.062Z,9.07
2023-04-19T14:38:48.964Z,9.77
2023-04-19T14:41:15.883Z,7.83
2023-04-19T14:43:42.666Z,7.37
2023-04-19T14:46:09.530Z,7.20
2023-04-19T14:48:36.553Z,7.57
2023-04-19T14:51:03.485Z,6.77
2023-04-19T14:53:32.360Z,6.30
2023-04-19T14:56:03.956Z,6.23
2023-04-19T14:58:30.688Z,6.43
2023-04-19T15:00:59.507Z,7.33
2023-04-19T15:03:29.135Z,6.03
2023-04-19T15:05:56.412Z,8.03
2023-04-19T15:08:30.783Z,9.00
2023-04-19T15:10:58.099Z,6.10
2023-04-19T15:13:25.100Z,6.50
2023-04-19T15:15:52.003Z,5.47
2023-04-19T15:18:18.847Z,5.80
2023-04-19T15:20:45.817Z,6.00
2023-04-19T15:23:12.599Z,5.37
2023-04-19T15:25:39.539Z,5.47
2023-04-19T15:28:09.310Z,5.07
2023-04-19T15:30:36.574Z,5.27
2023-04-19T15:33:03.953Z,5.90
2023-04-19T15:35:33.519Z,5.60
2023-04-19T15:38:00.533Z,5.83
2023-04-19T15:40:29.210Z,5.10
2023-04-19T15:42:56.194Z,5.07
2023-04-19T15:45:23.013Z,4.67
2023-04-19T15:47:50.041Z,4.60
2023-04-19T15:50:17.050Z,4.70
2023-04-19T15:52:43.983Z,5.80
2023-04-19T15:55:10.891Z,7.20
2023-04-19T15:57:37.727Z,8.13
2023-04-19T16:00:06.506Z,6.00
2023-04-19T16:02:34.180Z,5.67
2023-04-19T16:05:01.391Z,5.47
2023-04-19T16:07:28.361Z,5.30
2023-04-19T16:09:55.351Z,5.93
2023-04-19T16:12:22.118Z,5.37
2023-04-19T16:14:51.161Z,5.27
2023-04-19T16:17:18.115Z,5.20
2023-04-19T16:19:44.875Z,5.10
2023-04-19T16:22:12.834Z,4.90
2023-04-19T16:24:39.820Z,5.03
2023-04-19T16:27:06.784Z,4.57
2023-04-19T16:29:34.953Z,5.80
2023-04-19T16:32:01.920Z,4.57
2023-04-19T16:34:28.718Z,4.73
2023-04-19T16:36:55.740Z,5.20
2023-04-19T16:39:22.533Z,5.70
2023-04-19T16:41:51.546Z,4.90
2023-04-19T16:44:21.119Z,5.50
2023-04-19T16:46:47.865Z,5.13
2023-04-19T16:49:14.757Z,4.60
2023-04-19T16:51:41.845Z,5.00
2023-04-19T16:54:11.611Z,5.33
2023-04-19T16:56:38.418Z,4.87
2023-04-19T16:59:05.206Z,4.90
2023-04-19T17:01:33.363Z,5.07
2023-04-19T17:04:00.651Z,4.70
2023-04-19T17:06:28.148Z,5.17
2023-04-19T17:08:55.061Z,5.10
2023-04-19T17:11:21.949Z,4.53
2023-04-19T17:13:48.710Z,5.10
2023-04-19T17:16:15.739Z,5.00
2023-04-19T17:18:42.748Z,5.43
2023-04-19T17:21:09.679Z,5.17
2023-04-19T17:23:36.494Z,5.40
2023-04-19T17:26:03.262Z,5.23
2023-04-19T17:28:30.412Z,5.33
2023-04-19T17:30:57.160Z,5.33
2023-04-19T17:33:24.165Z,5.10
2023-04-19T17:35:51.464Z,5.77
2023-04-19T17:38:18.315Z,4.67
2023-04-19T17:40:45.418Z,5.27
2023-04-19T17:43:12.230Z,5.13
2023-04-19T17:45:39.208Z,5.20
2023-04-19T17:48:06.406Z,5.30
2023-04-19T17:50:33.325Z,5.60
2023-04-19T17:53:00.167Z,5.00
2023-04-19T17:55:26.984Z,5.13
2023-04-19T17:57:53.878Z,5.93
2023-04-19T18:00:20.817Z,5.10
2023-04-19T18:02:48.043Z,5.13
2023-04-19T18:05:15.009Z,5.17
2023-04-19T18:07:41.851Z,5.50
2023-04-19T18:10:12.119Z,5.63
2023-04-19T18:12:43.668Z,5.17
2023-04-19T18:15:10.996Z,4.77
2023-04-19T18:17:37.974Z,5.60
2023-04-19T18:20:07.095Z,5.10
2023-04-19T18:22:33.952Z,5.47
2023-04-19T18:25:00.704Z,5.23
2023-04-19T18:27:28.297Z,5.87
2023-04-19T18:30:04.120Z,5.73
2023-04-19T18:32:36.808Z,5.47
2023-04-19T18:35:09.032Z,6.00
2023-04-19T18:37:36.441Z,6.30
2023-04-19T18:40:07.269Z,6.90
2023-04-19T18:42:37.099Z,6.77
2023-04-19T18:45:04.387Z,5.83
2023-04-19T18:47:31.468Z,6.20
2023-04-19T18:50:05.366Z,6.20
2023-04-19T18:52:35.988Z,6.17
2023-04-19T18:55:03.745Z,6.63
2023-04-19T18:57:34.536Z,6.27
2023-04-19T19:00:05.640Z,6.77
2023-04-19T19:02:34.392Z,6.43
2023-04-19T19:05:02.337Z,8.30
2023-04-19T19:07:36.697Z,6.17
2023-04-19T19:12:38.093Z,6.87
2023-04-19T19:15:05.508Z,7.03
2023-04-19T19:17:35.913Z,6.30
2023-04-19T19:20:03.149Z,5.77
2023-04-19T19:22:30.118Z,6.33
2023-04-19T19:24:57.399Z,5.83
2023-04-19T19:27:27.509Z,5.87
2023-04-19T19:29:54.361Z,7.03
2023-04-19T19:32:21.209Z,6.20
2023-04-19T19:37:19.645Z,6.60
2023-04-19T19:39:46.777Z,5.93
2023-04-19T19:42:16.574Z,6.80
2023-04-19T19:44:44.180Z,6.40
2023-04-19T19:47:17.005Z,6.30
2023-04-19T19:50:05.833Z,7.60
2023-04-19T19:52:32.166Z,7.93
2023-04-19T19:55:00.212Z,7.53
2023-04-19T20:00:13.006Z,6.97
2023-04-19T20:02:54.862Z,7.93
2023-04-19T20:05:23.487Z,7.97
2023-04-19T20:08:01.951Z,7.90
2023-04-19T20:10:29.707Z,7.80
2023-04-19T20:12:57.441Z,7.40
2023-04-19T20:15:24.742Z,8.17
2023-04-19T20:17:51.582Z,8.73
2023-04-19T20:20:18.516Z,9.00
2023-04-19T20:22:45.610Z,8.23
2023-04-19T20:25:13.678Z,8.27
2023-04-19T20:27:40.939Z,7.23
2023-04-19T20:30:09.454Z,7.90
2023-04-19T20:32:42.534Z,7.47
2023-04-19T20:35:12.554Z,7.83
2023-04-19T20:37:42.804Z,7.90
2023-04-19T20:40:12.823Z,7.90
2023-04-19T20:42:40.614Z,8.30
2023-04-19T20:45:10.225Z,8.47
2023-04-19T20:47:40.315Z,7.30
2023-04-19T20:50:08.785Z,7.77
2023-04-19T20:52:35.948Z,6.73
2023-04-19T20:55:02.960Z,7.60
2023-04-19T20:57:29.704Z,5.93
2023-04-19T20:59:56.582Z,7.00
2023-04-19T21:02:23.532Z,6.10
2023-04-19T21:04:50.842Z,5.07
2023-04-19T21:07:17.587Z,5.60
2023-04-19T21:09:44.461Z,5.73
2023-04-19T21:12:11.689Z,6.57
2023-04-19T21:14:38.598Z,6.50
2023-04-19T21:17:05.458Z,6.80
2023-04-19T21:19:32.401Z,7.60
2023-04-19T21:21:59.482Z,6.63
2023-04-19T21:24:26.563Z,7.40
2023-04-19T21:26:53.529Z,7.20
2023-04-19T21:29:21.241Z,7.23
2023-04-19T21:31:48.064Z,6.87
2023-04-19T21:34:14.916Z,7.03
2023-04-19T21:36:41.786Z,6.93
2023-04-19T21:39:08.936Z,5.80
2023-04-19T21:41:36.347Z,6.20
2023-04-19T21:44:03.273Z,5.10
2023-04-19T21:46:30.053Z,4.80
2023-04-19T21:48:57.060Z,5.07
2023-04-19T21:51:23.800Z,5.13
2023-04-19T21:53:50.922Z,5.20
2023-04-19T21:56:17.752Z,4.80
2023-04-19T21:58:44.722Z,4.67
2023-04-19T22:01:11.591Z,4.63
2023-04-19T22:03:39.488Z,5.00
2023-04-19T22:06:06.914Z,4.13
2023-04-19T22:08:34.585Z,3.87
2023-04-19T22:11:01.774Z,4.00
2023-04-19T22:13:28.578Z,3.57
2023-04-19T22:15:57.356Z,3.37
2023-04-19T22:18:24.305Z,3.90
2023-04-19T22:20:52.329Z,3.60
2023-04-19T22:23:19.304Z,3.67
2023-04-19T22:25:46.618Z,3.67
2023-04-19T22:28:13.416Z,3.90
2023-04-19T22:30:40.269Z,4.00
2023-04-19T22:33:07.131Z,4.40
2023-04-19T22:35:33.922Z,3.97
2023-04-19T22:38:00.915Z,4.47
2023-04-19T22:40:27.671Z,4.30
2023-04-19T22:42:54.528Z,4.20
2023-04-19T22:45:21.434Z,4.00
2023-04-19T22:47:48.201Z,3.93
2023-04-19T22:50:15.228Z,3.93
2023-04-19T22:52:42.767Z,4.13
2023-04-19T22:55:10.787Z,3.90
2023-04-19T22:57:37.639Z,4.23
2023-04-19T23:00:05.624Z,4.10
2023-04-19T23:02:32.430Z,4.37
2023-04-19T23:05:00.899Z,4.27
2023-04-19T23:07:29.077Z,3.97
2023-04-19T23:09:56.353Z,3.77
2023-04-19T23:12:24.229Z,4.17
2023-04-19T23:14:51.360Z,4.13
2023-04-19T23:17:18.302Z,3.70
2023-04-19T23:19:45.143Z,3.63
2023-04-19T23:22:11.976Z,4.40
2023-04-19T23:24:38.769Z,3.73
2023-04-19T23:27:05.978Z,3.43
2023-04-19T23:29:32.755Z,3.80
2023-04-19T23:32:01.352Z,3.73
2023-04-19T23:34:28.091Z,3.87
2023-04-19T23:36:55.274Z,3.93
2023-04-19T23:39:22.346Z,3.87
2023-04-19T23:41:49.160Z,3.70
2023-04-19T23:44:15.883Z,3.80
2023-04-19T23:46:42.639Z,4.00
2023-04-19T23:49:09.402Z,4.03
2023-04-19T23:51:36.579Z,4.13
2023-04-19T23:54:03.411Z,3.40
2023-04-19T23:56:30.219Z,3.70
2023-04-19T23:58:57.659Z,4.40
